Time;durP1;ratioP1;P1;durP2;ratioP2;P2;SDS_P1;SDS_P2;PMS_P1;PMS_P2;Temp;Humidity;BMP_temperature;BMP_pressure;BME280_temperature;BME280_humidity;BME280_pressure;Samples;Min_cycle;Max_cycle;Signal;HPM_P1;HPM_P2
2021/12/30 00:01:29;;;;;;;193.30;118.70;;;;;;;-0.42;100.00;98580.92;102278;1313;75486;-73
2021/12/30 00:03:55;;;;;;;183.10;115.70;;;;;;;-0.40;100.00;98581.23;102316;1310;67387;-73
2021/12/30 00:06:23;;;;;;;168.30;106.90;;;;;;;-0.37;100.00;98582.33;102293;1317;71580;-73
2021/12/30 00:08:53;;;;;;;161.70;102.80;;;;;;;-0.33;100.00;98586.58;102324;1311;61345;-73
2021/12/30 00:11:20;;;;;;;153.80;97.30;;;;;;;-0.31;100.00;98584.77;102018;1317;61324;-73
2021/12/30 00:13:47;;;;;;;129.60;81.70;;;;;;;-0.29;100.00;98585.41;101902;1317;74395;-73
2021/12/30 00:16:15;;;;;;;125.30;80.90;;;;;;;-0.29;100.00;98587.00;102487;1310;69347;-73
2021/12/30 00:18:43;;;;;;;131.60;83.30;;;;;;;-0.29;100.00;98589.94;102294;1310;73456;-72
2021/12/30 00:21:10;;;;;;;131.30;81.10;;;;;;;-0.24;100.00;98589.80;102396;1310;61615;-72
2021/12/30 00:23:38;;;;;;;144.80;92.10;;;;;;;-0.15;100.00;98593.92;102323;1313;61292;-73
2021/12/30 00:26:04;;;;;;;162.30;102.70;;;;;;;-0.09;100.00;98594.77;102364;1311;75463;-72
2021/12/30 00:28:31;;;;;;;150.80;101.00;;;;;;;-0.00;100.00;98601.84;102340;1316;70461;-73
2021/12/30 00:30:58;;;;;;;176.40;108.60;;;;;;;0.02;100.00;98599.86;102363;1310;74186;-74
2021/12/30 00:33:27;;;;;;;159.90;103.40;;;;;;;0.05;100.00;98602.55;102324;1317;61339;-72
2021/12/30 00:35:55;;;;;;;152.80;98.00;;;;;;;0.10;100.00;98607.12;102485;1314;61185;-72
2021/12/30 00:38:21;;;;;;;157.30;97.50;;;;;;;0.08;100.00;98607.87;102468;1314;76937;-73
2021/12/30 00:40:48;;;;;;;150.20;97.10;;;;;;;0.11;100.00;98610.94;102531;1310;68786;-73
2021/12/30 00:43:15;;;;;;;162.70;107.40;;;;;;;0.08;100.00;98613.44;102292;1314;73190;-72
2021/12/30 00:45:43;;;;;;;162.10;105.50;;;;;;;0.09;100.00;98608.73;103362;1310;61447;-73
2021/12/30 00:48:11;;;;;;;180.90;117.70;;;;;;;0.16;100.00;98613.56;103184;1310;61275;-72
2021/12/30 00:50:39;;;;;;;184.20;119.30;;;;;;;0.22;100.00;98615.30;103614;1316;75456;-73
2021/12/30 00:53:38;;;;;;;188.40;122.50;;;;;;;0.32;100.00;98614.47;100321;1334;601424;-74
2021/12/30 00:56:05;;;;;;;173.30;113.50;;;;;;;0.34;100.00;98613.71;100543;1319;59363;-73
2021/12/30 00:58:31;;;;;;;171.20;110.40;;;;;;;0.37;100.00;98615.35;100472;1319;60803;-73
2021/12/30 01:00:59;;;;;;;157.70;101.50;;;;;;;0.37;100.00;98616.38;100379;1319;72225;-73
2021/12/30 01:03:28;;;;;;;166.20;105.90;;;;;;;0.40;100.00;98621.38;100459;1319;68761;-73
2021/12/30 01:05:54;;;;;;;155.10;103.60;;;;;;;0.45;100.00;98621.55;100572;1319;73507;-72
2021/12/30 01:08:21;;;;;;;156.60;104.30;;;;;;;0.49;100.00;98621.25;100343;1319;59271;-73
2021/12/30 01:10:49;;;;;;;174.70;117.20;;;;;;;0.51;100.00;98618.21;100543;1319;60976;-72
2021/12/30 01:13:25;;;;;;;182.20;119.10;;;;;;;0.55;100.00;98618.44;100459;1318;71357;-73
2021/12/30 01:21:13;;;;;;;174.00;114.10;;;;;;;0.57;100.00;98610.16;100503;1319;60797;-73
2021/12/30 01:23:41;;;;;;;164.10;106.60;;;;;;;0.56;100.00;98609.85;100364;1319;60637;-73
2021/12/30 01:26:09;;;;;;;165.40;108.30;;;;;;;0.57;100.00;98609.83;101081;1319;72628;-74
2021/12/30 01:28:36;;;;;;;170.10;107.80;;;;;;;0.57;100.00;98613.83;101037;1320;70604;-72
2021/12/30 01:31:04;;;;;;;156.20;104.60;;;;;;;0.54;100.00;98621.63;101110;1319;71476;-71
2021/12/30 01:33:31;;;;;;;179.30;115.40;;;;;;;0.50;100.00;98629.81;100461;1319;59701;-72
2021/12/30 01:35:58;;;;;;;187.00;118.10;;;;;;;0.48;100.00;98619.39;100470;1319;60795;-73
2021/12/30 01:38:25;;;;;;;180.20;119.20;;;;;;;0.46;100.00;98616.29;100517;1320;73672;-73
2021/12/30 01:40:54;;;;;;;178.80;118.70;;;;;;;0.40;100.00;98624.17;100461;1319;70165;-72
2021/12/30 01:43:21;;;;;;;179.00;116.40;;;;;;;0.34;100.00;98627.50;100494;1318;73270;-72
2021/12/30 01:45:48;;;;;;;163.10;109.20;;;;;;;0.27;100.00;98627.38;100492;1315;59816;-72
2021/12/30 01:48:15;;;;;;;167.50;103.10;;;;;;;0.21;100.00;98624.59;100465;1313;61069;-72
2021/12/30 01:50:42;;;;;;;154.60;98.60;;;;;;;0.19;100.00;98622.73;100465;1319;71731;-73
2021/12/30 01:53:09;;;;;;;158.80;103.50;;;;;;;0.20;100.00;98623.04;100481;1320;69693;-73
2021/12/30 01:55:39;;;;;;;169.60;110.20;;;;;;;0.23;100.00;98624.70;100397;1316;73451;-73
2021/12/30 01:58:06;;;;;;;167.20;112.60;;;;;;;0.26;100.00;98621.63;100865;1316;59612;-73
2021/12/30 02:00:34;;;;;;;172.70;115.10;;;;;;;0.27;100.00;98615.85;100775;1318;62079;-73
2021/12/30 02:03:01;;;;;;;183.50;119.20;;;;;;;0.26;100.00;98614.65;100848;1316;73764;-73
2021/12/30 02:05:29;;;;;;;172.90;117.60;;;;;;;0.26;100.00;98608.19;100938;1316;69321;-74
2021/12/30 02:07:55;;;;;;;167.50;110.60;;;;;;;0.21;100.00;98609.39;100501;1322;74493;-73
2021/12/30 02:10:22;;;;;;;156.50;103.80;;;;;;;0.15;100.00;98606.08;100857;1316;59684;-73
2021/12/30 02:12:49;;;;;;;151.10;102.50;;;;;;;0.12;100.00;98605.66;100525;1316;60257;-72
2021/12/30 02:15:17;;;;;;;155.70;102.50;;;;;;;0.13;100.00;98616.45;100948;1316;73499;-73
2021/12/30 02:17:48;;;;;;;152.00;101.60;;;;;;;0.16;100.00;98612.16;100773;1316;69132;-72
2021/12/30 02:20:44;;;;;;;156.00;106.50;;;;;;;0.16;100.00;98607.09;100746;1316;73340;-73
2021/12/30 02:23:17;;;;;;;172.50;113.20;;;;;;;0.19;100.00;98607.02;100339;1322;59784;-72
2021/12/30 02:25:45;;;;;;;172.00;118.00;;;;;;;0.18;100.00;98612.27;100899;1316;61835;-74
2021/12/30 02:28:15;;;;;;;186.20;118.10;;;;;;;0.12;100.00;98621.89;100826;1316;74525;-73
2021/12/30 02:30:43;;;;;;;174.20;117.20;;;;;;;0.04;100.00;98625.47;100771;1316;70479;-72
2021/12/30 02:33:11;;;;;;;167.50;113.20;;;;;;;-0.04;100.00;98631.30;100884;1319;74397;-72
2021/12/30 02:35:37;;;;;;;163.60;107.10;;;;;;;-0.13;100.00;98632.23;100872;1316;59740;-72
2021/12/30 02:38:05;;;;;;;159.60;104.30;;;;;;;-0.19;100.00;98630.19;101007;1313;61910;-72
2021/12/30 02:40:37;;;;;;;161.90;103.00;;;;;;;-0.23;100.00;98630.11;101015;1313;74134;-73
2021/12/30 02:43:11;;;;;;;159.40;109.70;;;;;;;-0.27;100.00;98629.35;100907;1313;68716;-74
2021/12/30 02:45:38;;;;;;;175.50;115.80;;;;;;;-0.25;100.00;98626.48;100741;1316;74476;-74
2021/12/30 02:48:05;;;;;;;177.50;117.40;;;;;;;-0.23;100.00;98625.20;101010;1312;59683;-74
2021/12/30 02:50:32;;;;;;;183.50;119.00;;;;;;;-0.21;100.00;98631.80;100974;1313;61057;-72
2021/12/30 02:52:59;;;;;;;178.40;120.00;;;;;;;-0.21;100.00;98633.54;101045;1313;74858;-72
2021/12/30 02:55:25;;;;;;;174.90;118.70;;;;;;;-0.23;100.00;98627.83;100770;1318;69622;-75
2021/12/30 02:57:52;;;;;;;163.70;113.70;;;;;;;-0.22;100.00;98634.45;101002;1313;74500;-73
2021/12/30 03:00:32;;;;;;;160.60;107.80;;;;;;;-0.22;100.00;98633.04;100834;1310;59609;-72
2021/12/30 03:02:58;;;;;;;159.10;105.10;;;;;;;-0.14;100.00;98632.30;101001;1317;60880;-73
2021/12/30 03:05:25;;;;;;;151.30;102.50;;;;;;;-0.10;100.00;98634.09;100961;1313;74738;-73
2021/12/30 03:07:53;;;;;;;173.00;112.70;;;;;;;-0.10;100.00;98636.52;100949;1316;68735;-75
2021/12/30 03:10:23;;;;;;;172.20;116.30;;;;;;;-0.06;100.00;98640.58;100965;1313;73345;-74
2021/12/30 03:12:55;;;;;;;;;;;;;;;-0.03;100.00;98636.67;101020;1313;59665;-74
2021/12/30 03:15:23;;;;;;;176.60;117.00;;;;;;;-0.05;100.00;98645.11;101001;1313;60553;-74
2021/12/30 03:17:50;;;;;;;175.20;114.90;;;;;;;-0.11;100.00;98650.89;101088;1317;73505;-74
2021/12/30 03:20:16;;;;;;;171.90;118.80;;;;;;;-0.18;100.00;98647.94;101048;1313;69098;-73
2021/12/30 03:22:44;;;;;;;177.30;117.90;;;;;;;-0.19;100.00;98652.69;101001;1311;74382;-73
2021/12/30 03:25:14;;;;;;;169.10;112.80;;;;;;;-0.19;100.00;98651.47;101020;1313;59751;-72
2021/12/30 03:27:41;;;;;;;170.30;111.70;;;;;;;-0.19;100.00;98651.30;100999;1313;60758;-74
2021/12/30 03:30:13;;;;;;;166.50;110.20;;;;;;;-0.16;100.00;98648.42;101005;1313;74467;-76
2021/12/30 03:32:40;;;;;;;178.30;119.10;;;;;;;-0.15;100.00;98650.66;101037;1313;69140;-73
2021/12/30 03:35:07;;;;;;;191.10;127.40;;;;;;;-0.15;100.00;98651.19;100960;1313;73475;-73
2021/12/30 03:37:35;;;;;;;207.00;138.50;;;;;;;-0.14;100.00;98654.11;101050;1317;59741;-73
2021/12/30 03:40:04;;;;;;;213.50;143.50;;;;;;;-0.15;100.00;98654.30;100971;1314;60970;-73
2021/12/30 03:42:31;;;;;;;232.40;152.80;;;;;;;-0.15;100.00;98659.55;101009;1313;73965;-73
2021/12/30 03:45:00;;;;;;;231.70;154.20;;;;;;;-0.14;100.00;98665.12;100987;1313;59758;-71
2021/12/30 03:47:26;;;;;;;218.60;149.40;;;;;;;-0.11;100.00;98669.20;100985;1313;73232;-71
2021/12/30 03:49:53;;;;;;;211.70;141.40;;;;;;;-0.03;100.00;98673.17;100982;1313;60278;-73
2021/12/30 03:52:27;;;;;;;200.00;139.80;;;;;;;0.03;100.00;98677.71;101425;1307;62062;-73
2021/12/30 03:54:54;;;;;;;202.40;137.80;;;;;;;0.10;100.00;98683.63;101464;1309;74049;-71
2021/12/30 03:57:20;;;;;;;202.80;138.20;;;;;;;0.15;100.00;98680.84;101385;1306;59560;-71
2021/12/30 03:59:47;;;;;;;229.80;152.80;;;;;;;0.19;100.00;98684.38;101375;1314;74397;-72
2021/12/30 04:02:14;;;;;;;229.10;157.80;;;;;;;0.25;100.00;98683.53;101531;1306;59575;-73
2021/12/30 04:04:40;;;;;;;238.10;158.30;;;;;;;0.30;100.00;98684.61;101390;1310;60926;-72
2021/12/30 04:07:07;;;;;;;234.70;158.70;;;;;;;0.32;100.00;98682.45;101386;1310;74266;-73
2021/12/30 04:09:35;;;;;;;226.60;158.30;;;;;;;0.30;100.00;98683.39;101387;1306;69901;-72
2021/12/30 04:12:03;;;;;;;223.90;150.80;;;;;;;0.27;100.00;98679.79;101405;1306;73266;-73
2021/12/30 04:14:30;;;;;;;227.00;154.90;;;;;;;0.26;100.00;98676.15;101469;1314;59694;-73
2021/12/30 04:16:57;;;;;;;232.20;153.00;;;;;;;0.29;100.00;98679.89;101113;1309;60978;-73
2021/12/30 04:19:23;;;;;;;220.30;147.80;;;;;;;0.32;100.00;98686.78;101593;1314;73218;-73
2021/12/30 04:21:55;;;;;;;222.90;152.40;;;;;;;0.37;100.00;98698.70;101371;1313;68871;-73
2021/12/30 04:24:21;;;;;;;242.90;169.00;;;;;;;0.41;100.00;98708.00;101111;1314;73212;-74
2021/12/30 04:26:50;;;;;;;249.30;170.50;;;;;;;0.44;100.00;98710.88;101422;1313;59793;-72
2021/12/30 04:29:18;;;;;;;253.70;172.00;;;;;;;0.44;100.00;98714.38;101595;1310;60779;-73
2021/12/30 04:31:45;;;;;;;252.40;171.60;;;;;;;0.45;100.00;98716.98;101667;1314;73693;-72
2021/12/30 04:34:13;;;;;;;245.20;169.20;;;;;;;0.43;100.00;98727.00;101521;1306;69151;-73
2021/12/30 04:36:40;;;;;;;236.40;158.70;;;;;;;0.42;100.00;98732.10;101508;1306;74451;-72
2021/12/30 04:39:07;;;;;;;230.20;154.80;;;;;;;0.42;100.00;98724.92;101661;1307;60215;-73
2021/12/30 04:41:34;;;;;;;227.10;154.50;;;;;;;0.46;100.00;98728.14;101671;1306;59985;-73
2021/12/30 04:44:01;;;;;;;224.60;149.50;;;;;;;0.48;100.00;98726.52;101589;1306;74616;-73
2021/12/30 04:46:28;;;;;;;227.50;160.10;;;;;;;0.50;100.00;98733.10;101456;1314;69171;-73
2021/12/30 04:48:54;;;;;;;248.80;169.60;;;;;;;0.51;100.00;98734.48;101423;1307;74485;-73
2021/12/30 04:51:21;;;;;;;260.40;179.70;;;;;;;0.53;100.00;98742.61;101438;1306;59751;-73
2021/12/30 04:53:48;;;;;;;272.90;190.10;;;;;;;0.58;100.00;98738.27;101367;1307;61807;-73
2021/12/30 04:56:14;;;;;;;248.70;172.80;;;;;;;0.70;100.00;98737.89;100934;1314;73889;-73
2021/12/30 04:58:41;;;;;;;252.90;172.80;;;;;;;0.73;100.00;98735.35;101436;1306;59734;-73
2021/12/30 05:01:07;;;;;;;250.00;167.60;;;;;;;0.69;100.00;98732.32;101107;1313;60491;-73
2021/12/30 05:03:34;;;;;;;238.00;164.10;;;;;;;0.69;100.00;98734.79;101129;1314;60914;-73
2021/12/30 05:06:01;;;;;;;238.90;165.80;;;;;;;0.68;100.00;98726.58;101486;1306;60927;-72
2021/12/30 05:08:28;;;;;;;245.30;168.80;;;;;;;0.70;100.00;98724.44;101481;1307;75526;-72
2021/12/30 05:10:55;;;;;;;269.50;183.20;;;;;;;0.77;100.00;98725.45;101464;1307;69104;-74
2021/12/30 05:13:21;;;;;;;280.30;190.60;;;;;;;0.81;100.00;98725.81;101450;1306;73207;-73
2021/12/30 05:15:48;;;;;;;275.40;189.50;;;;;;;0.80;100.00;98726.73;101350;1307;60468;-74
2021/12/30 05:18:16;;;;;;;275.90;197.70;;;;;;;0.82;100.00;98723.89;101414;1307;61839;-73
2021/12/30 05:20:44;;;;;;;274.40;194.90;;;;;;;0.85;100.00;98723.08;101079;1312;73520;-73
2021/12/30 05:23:11;;;;;;;266.00;184.80;;;;;;;0.84;100.00;98726.42;101385;1307;69164;-73
2021/12/30 05:25:38;;;;;;;248.80;171.90;;;;;;;0.80;100.00;98722.54;101445;1306;74357;-73
2021/12/30 05:28:05;;;;;;;241.30;170.30;;;;;;;0.78;100.00;98731.51;101406;1310;60594;-73
2021/12/30 05:30:32;;;;;;;237.20;164.50;;;;;;;0.78;100.00;98738.88;101039;1314;60862;-72
2021/12/30 05:32:58;;;;;;;236.80;166.40;;;;;;;0.77;100.00;98746.05;101351;1306;74351;-72
2021/12/30 05:35:25;;;;;;;256.70;184.00;;;;;;;0.77;100.00;98753.44;101510;1306;70137;-73
2021/12/30 05:37:52;;;;;;;271.70;190.60;;;;;;;0.76;100.00;98757.80;101507;1307;73375;-74
2021/12/30 05:40:21;;;;;;;282.10;196.80;;;;;;;0.77;100.00;98756.72;101407;1307;60479;-73
2021/12/30 05:42:49;;;;;;;286.90;201.30;;;;;;;0.80;100.00;98746.48;101491;1308;60594;-73
2021/12/30 05:45:16;;;;;;;284.00;199.80;;;;;;;0.78;100.00;98743.95;101396;1306;75510;-73
2021/12/30 05:47:46;;;;;;;257.70;183.20;;;;;;;0.79;100.00;98737.24;101431;1307;69334;-74
2021/12/30 05:50:16;;;;;;;252.30;179.30;;;;;;;0.82;100.00;98731.74;101404;1306;72921;-72
2021/12/30 05:52:43;;;;;;;242.20;170.60;;;;;;;0.83;100.00;98737.48;101112;1310;60584;-72
2021/12/30 05:55:10;;;;;;;231.20;157.20;;;;;;;0.83;100.00;98749.20;101491;1308;60877;-74
2021/12/30 05:57:36;;;;;;;235.00;159.90;;;;;;;0.82;100.00;98751.84;101472;1310;74492;-73
2021/12/30 06:00:05;;;;;;;240.60;166.30;;;;;;;0.80;100.00;98763.11;101393;1307;62044;-74
2021/12/30 06:02:32;;;;;;;261.40;190.30;;;;;;;0.79;100.00;98768.21;101150;1314;73374;-72
2021/12/30 06:04:58;;;;;;;282.90;203.60;;;;;;;0.78;100.00;98767.54;101363;1310;60481;-73
2021/12/30 06:07:25;;;;;;;296.20;203.80;;;;;;;0.75;100.00;98768.17;101409;1310;61926;-72
2021/12/30 06:09:51;;;;;;;278.40;202.40;;;;;;;0.72;100.00;98772.98;101425;1307;73515;-73
2021/12/30 06:12:18;;;;;;;284.30;205.30;;;;;;;0.73;100.00;98780.28;101451;1307;60452;-73
2021/12/30 06:14:44;;;;;;;279.00;195.70;;;;;;;0.74;100.00;98783.20;101115;1310;60487;-75
2021/12/30 06:17:13;;;;;;;267.50;185.70;;;;;;;0.79;100.00;98786.92;101598;1307;60452;-73
2021/12/30 06:19:40;;;;;;;256.90;180.30;;;;;;;0.83;100.00;98784.70;102182;1307;61828;-74
2021/12/30 06:22:06;;;;;;;254.30;182.80;;;;;;;0.89;100.00;98788.71;102370;1306;74532;-73
2021/12/30 06:24:33;;;;;;;251.90;185.50;;;;;;;0.92;100.00;98791.42;102178;1306;69491;-73
2021/12/30 06:26:59;;;;;;;266.70;197.80;;;;;;;0.95;100.00;98795.53;101451;1310;60545;-73
2021/12/30 06:29:27;;;;;;;278.50;204.60;;;;;;;0.95;100.00;98796.38;101435;1310;60495;-73
2021/12/30 06:31:53;;;;;;;291.50;204.30;;;;;;;0.97;100.00;98798.97;101502;1307;61078;-74
2021/12/30 06:34:20;;;;;;;289.20;207.90;;;;;;;0.98;100.00;98800.85;101457;1307;60430;-72
2021/12/30 06:36:47;;;;;;;280.40;203.80;;;;;;;0.97;100.00;98807.70;101193;1313;60462;-73
2021/12/30 06:39:14;;;;;;;258.90;182.80;;;;;;;0.96;100.00;98808.63;101755;1306;73153;-73
2021/12/30 06:41:41;;;;;;;254.40;178.20;;;;;;;0.96;100.00;98805.48;101560;1306;60441;-74
2021/12/30 06:44:07;;;;;;;242.60;173.70;;;;;;;0.97;100.00;98818.73;101761;1306;61148;-74
2021/12/30 06:46:34;;;;;;;234.00;167.30;;;;;;;0.96;100.00;98812.47;101803;1307;75132;-74
2021/12/30 06:49:01;;;;;;;234.50;171.20;;;;;;;0.98;100.00;98811.33;101192;1310;70153;-74
2021/12/30 06:51:34;;;;;;;254.00;186.90;;;;;;;1.02;100.00;98813.33;101742;1310;71841;-73
2021/12/30 06:54:03;;;;;;;269.90;196.20;;;;;;;1.04;100.00;98816.04;102040;1306;60540;-75
2021/12/30 06:56:31;;;;;;;284.90;204.90;;;;;;;1.04;100.00;98811.16;102155;1310;61846;-73
2021/12/30 06:58:58;;;;;;;301.80;208.10;;;;;;;1.01;100.00;98810.03;102232;1306;74810;-74
2021/12/30 07:01:24;;;;;;;281.00;204.50;;;;;;;0.98;100.00;98808.54;102199;1306;70059;-72
2021/12/30 07:03:51;;;;;;;267.60;188.20;;;;;;;0.93;100.00;98811.16;102774;1310;74226;-73
2021/12/30 07:06:17;;;;;;;264.30;183.80;;;;;;;0.88;100.00;98812.69;101706;1310;60475;-73
2021/12/30 07:08:44;;;;;;;241.50;171.50;;;;;;;0.84;100.00;98807.91;102875;1309;62049;-73
2021/12/30 07:11:10;;;;;;;237.70;168.50;;;;;;;0.80;100.00;98802.78;103951;1310;58941;-74
2021/12/30 07:13:37;;;;;;;243.90;172.00;;;;;;;0.80;100.00;98803.84;104193;1314;69230;-73
2021/12/30 07:16:04;;;;;;;270.40;194.70;;;;;;;0.81;100.00;98800.49;104331;1306;73274;-73
2021/12/30 07:18:31;;;;;;;286.90;203.20;;;;;;;0.86;100.00;98801.41;103609;1313;60548;-73
2021/12/30 07:20:57;;;;;;;298.20;216.70;;;;;;;0.93;100.00;98795.60;102214;1307;60854;-72
2021/12/30 07:23:24;;;;;;;293.70;212.90;;;;;;;1.00;100.00;98798.88;101678;1308;74472;-74
2021/12/30 07:25:52;;;;;;;285.80;203.00;;;;;;;1.05;100.00;98798.16;101236;1309;70489;-74
2021/12/30 07:28:19;;;;;;;274.60;197.10;;;;;;;1.10;100.00;98801.16;101619;1306;73436;-73
2021/12/30 07:30:45;;;;;;;261.50;190.00;;;;;;;1.12;100.00;98801.10;101597;1309;60449;-73
2021/12/30 07:33:12;;;;;;;250.90;179.60;;;;;;;1.17;100.00;98803.77;101527;1306;60358;-74
2021/12/30 07:35:39;;;;;;;237.70;173.40;;;;;;;1.23;100.00;98811.60;101531;1310;75056;-74
2021/12/30 07:38:05;;;;;;;249.00;180.20;;;;;;;1.28;100.00;98812.67;101067;1306;69109;-74
2021/12/30 07:40:33;;;;;;;280.30;205.90;;;;;;;1.32;100.00;98814.65;101448;1308;73152;-74
2021/12/30 07:43:00;;;;;;;292.00;211.80;;;;;;;1.34;100.00;98819.14;101410;1307;60522;-74
2021/12/30 07:45:27;;;;;;;287.40;207.90;;;;;;;1.42;100.00;98820.45;101606;1302;61142;-74
2021/12/30 07:47:54;;;;;;;295.40;213.80;;;;;;;1.52;100.00;98819.59;101277;1303;73875;-75
2021/12/30 07:50:22;;;;;;;269.80;203.00;;;;;;;1.62;100.00;98821.71;101753;1306;70217;-74
2021/12/30 07:52:50;;;;;;;259.20;190.80;;;;;;;1.72;100.00;98820.51;101787;1306;73246;-74
2021/12/30 07:55:17;;;;;;;243.00;178.60;;;;;;;1.81;100.00;98824.75;101583;1306;60762;-75
2021/12/30 07:57:44;;;;;;;229.80;169.30;;;;;;;1.92;100.00;98825.93;101657;1307;61933;-74
2021/12/30 08:00:13;;;;;;;261.80;190.90;;;;;;;2.07;100.00;98836.64;101694;1306;75732;-74
2021/12/30 08:02:42;;;;;;;271.10;202.50;;;;;;;2.19;100.00;98843.41;101562;1306;69431;-73
2021/12/30 08:05:15;;;;;;;288.90;215.40;;;;;;;2.22;100.00;98842.95;101489;1306;73232;-74
2021/12/30 08:07:42;;;;;;;284.40;214.00;;;;;;;2.25;100.00;98841.79;101603;1307;60472;-74
2021/12/30 08:10:12;;;;;;;281.60;213.80;;;;;;;2.33;100.00;98839.91;101568;1307;60869;-74
2021/12/30 08:12:42;;;;;;;259.50;196.10;;;;;;;2.45;100.00;98840.89;101415;1306;75613;-74
2021/12/30 08:15:10;;;;;;;243.90;184.00;;;;;;;2.53;100.00;98831.29;101507;1306;67314;-75
2021/12/30 08:17:38;;;;;;;215.60;162.10;;;;;;;2.60;100.00;98827.55;101706;1307;73933;-75
2021/12/30 08:20:06;;;;;;;206.80;151.40;;;;;;;2.66;100.00;98824.67;101691;1307;60514;-74
2021/12/30 08:22:34;;;;;;;220.50;166.40;;;;;;;2.73;100.00;98828.11;101630;1304;60330;-74
2021/12/30 08:25:02;;;;;;;243.40;185.30;;;;;;;2.77;100.00;98829.71;101461;1306;73384;-75
2021/12/30 08:27:28;;;;;;;248.10;191.40;;;;;;;2.82;100.00;98829.86;101477;1307;69458;-73
2021/12/30 08:29:55;;;;;;;254.30;194.30;;;;;;;2.81;100.00;98832.00;101477;1308;72796;-75
2021/12/30 08:32:21;;;;;;;251.00;195.50;;;;;;;2.82;100.00;98833.19;101137;1313;62127;-75
2021/12/30 08:34:48;;;;;;;237.60;183.90;;;;;;;2.84;100.00;98834.19;101624;1304;61322;-77
2021/12/30 08:37:16;;;;;;;224.20;169.20;;;;;;;2.90;100.00;98833.41;101396;1307;74015;-71
2021/12/30 08:39:44;;;;;;;216.70;164.20;;;;;;;2.97;100.00;98833.15;101027;1312;69188;-71
2021/12/30 08:42:26;;;;;;;209.70;161.80;;;;;;;3.03;100.00;98842.76;101504;1307;73616;-73
2021/12/30 08:44:54;;;;;;;198.90;154.20;;;;;;;3.09;100.00;98846.71;101427;1307;60526;-71
2021/12/30 08:47:22;;;;;;;231.60;171.80;;;;;;;3.19;100.00;98847.73;101445;1307;60827;-72
2021/12/30 08:49:49;;;;;;;248.80;191.90;;;;;;;3.29;100.00;98845.94;101427;1307;74451;-71
2021/12/30 08:52:19;;;;;;;243.00;188.60;;;;;;;3.40;100.00;98848.69;101446;1310;68793;-71
2021/12/30 08:54:50;;;;;;;247.20;195.20;;;;;;;3.45;100.00;98853.37;101093;1310;73313;-72
2021/12/30 08:57:18;;;;;;;237.00;188.30;;;;;;;3.49;100.00;98849.68;101416;1310;60388;-74
2021/12/30 08:59:45;;;;;;;227.80;171.00;;;;;;;3.53;100.00;98846.02;101450;1306;62053;-71
2021/12/30 09:02:12;;;;;;;198.00;156.80;;;;;;;3.62;100.00;98843.36;101391;1306;75038;-71
2021/12/30 09:04:42;;;;;;;196.60;146.60;;;;;;;3.76;100.00;98847.71;101117;1312;70037;-71
2021/12/30 09:07:09;;;;;;;192.90;139.40;;;;;;;3.87;100.00;98848.14;101402;1306;73135;-71
2021/12/30 09:09:36;;;;;;;203.40;153.60;;;;;;;3.94;100.00;98851.15;101590;1306;60477;-71
2021/12/30 09:12:03;;;;;;;213.00;158.70;;;;;;;4.03;100.00;98852.91;101511;1306;60383;-70
2021/12/30 09:14:29;;;;;;;212.40;154.20;;;;;;;4.16;100.00;98854.09;101109;1310;74479;-72
2021/12/30 09:16:56;;;;;;;216.40;162.00;;;;;;;4.24;100.00;98858.52;101476;1307;70365;-72
2021/12/30 09:19:23;;;;;;;214.40;157.80;;;;;;;4.32;100.00;98861.51;101382;1307;74209;-70
2021/12/30 09:21:50;;;;;;;201.20;150.50;;;;;;;4.39;100.00;98863.85;101391;1306;60344;-70
2021/12/30 09:24:16;;;;;;;195.00;140.40;;;;;;;4.38;100.00;98866.33;101481;1306;61147;-70
2021/12/30 09:26:43;;;;;;;183.40;136.20;;;;;;;4.39;100.00;98862.94;101650;1306;74478;-70
2021/12/30 09:29:12;;;;;;;184.10;130.50;;;;;;;4.45;100.00;98862.17;101458;1307;69221;-71
2021/12/30 09:31:41;;;;;;;173.60;127.20;;;;;;;4.54;100.00;98861.44;101559;1307;72852;-72
2021/12/30 09:34:09;;;;;;;186.50;136.60;;;;;;;4.61;100.00;98860.23;101494;1307;61480;-71
2021/12/30 09:36:37;;;;;;;199.70;148.70;;;;;;;4.60;100.00;98856.40;101165;1310;60744;-70
2021/12/30 09:39:10;;;;;;;193.20;149.30;;;;;;;4.56;100.00;98853.75;101602;1307;72802;-70
2021/12/30 09:41:43;;;;;;;192.50;144.70;;;;;;;4.52;100.00;98849.75;101110;1310;69166;-70
2021/12/30 09:44:13;;;;;;;198.10;148.50;;;;;;;4.48;100.00;98840.94;101460;1306;75043;-71
2021/12/30 09:46:40;;;;;;;195.20;149.60;;;;;;;4.43;100.00;98836.05;101427;1306;60496;-71
2021/12/30 09:49:09;;;;;;;196.20;149.20;;;;;;;4.44;100.00;98828.47;101135;1313;62200;-73
2021/12/30 09:51:37;;;;;;;179.20;138.20;;;;;;;4.49;100.00;98826.81;101670;1306;74356;-72
2021/12/30 09:54:04;;;;;;;181.10;136.90;;;;;;;4.54;100.00;98825.69;101243;1310;70452;-71
2021/12/30 09:56:31;;;;;;;176.90;132.70;;;;;;;4.61;100.00;98827.52;101514;1306;72934;-70
2021/12/30 09:58:58;;;;;;;170.90;125.80;;;;;;;4.68;100.00;98832.83;101401;1304;60497;-70
2021/12/30 10:01:25;;;;;;;171.80;129.60;;;;;;;4.74;100.00;98842.06;101606;1307;61030;-82
2021/12/30 10:04:01;;;;;;;170.90;134.40;;;;;;;4.77;100.00;98836.77;101832;1310;73962;-80
2021/12/30 10:06:29;;;;;;;172.00;131.50;;;;;;;4.80;100.00;98829.79;101960;1310;68712;-77
2021/12/30 10:08:58;;;;;;;160.60;123.10;;;;;;;4.87;100.00;98825.95;101347;1309;71317;-79
2021/12/30 10:11:26;;;;;;;153.80;114.20;;;;;;;4.96;100.00;98826.63;101730;1307;62227;-79
2021/12/30 10:13:56;;;;;;;156.90;111.60;;;;;;;4.99;100.00;98834.92;101790;1307;61067;-79
2021/12/30 10:16:24;;;;;;;116.30;84.30;;;;;;;5.01;100.00;98834.84;102194;1306;74021;-78
2021/12/30 10:18:57;;;;;;;104.30;77.50;;;;;;;5.06;100.00;98835.09;101961;1306;70159;-76
2021/12/30 10:21:32;;;;;;;67.10;48.20;;;;;;;5.20;100.00;98832.70;101140;1314;71344;-76
2021/12/30 10:24:02;;;;;;;48.90;36.00;;;;;;;5.34;100.00;98835.38;101508;1307;61150;-75
2021/12/30 10:26:29;;;;;;;38.10;28.10;;;;;;;5.47;100.00;98832.23;101678;1306;61057;-74
2021/12/30 10:29:05;;;;;;;26.10;20.40;;;;;;;5.60;100.00;98833.55;101661;1313;74839;-79
2021/12/30 10:31:33;;;;;;;23.00;16.00;;;;;;;5.70;100.00;98837.46;101603;1307;68526;-80
2021/12/30 10:34:06;;;;;;;18.30;14.80;;;;;;;5.74;100.00;98833.41;101952;1306;72912;-80
2021/12/30 10:36:32;;;;;;;15.70;12.20;;;;;;;5.76;100.00;98832.08;102071;1306;60612;-83
2021/12/30 10:39:14;;;;;;;18.30;11.90;;;;;;;5.78;100.00;98825.64;102212;1306;60125;-84
2021/12/30 10:41:40;;;;;;;14.90;12.30;;;;;;;5.87;100.00;98827.13;102245;1306;75778;-85
2021/12/30 10:44:07;;;;;;;14.30;11.60;;;;;;;5.96;100.00;98827.73;102244;1306;69174;-85
2021/12/30 10:46:34;;;;;;;12.50;9.60;;;;;;;6.07;100.00;98831.92;101833;1311;72790;-84
2021/12/30 10:49:09;;;;;;;11.10;9.40;;;;;;;6.17;100.00;98838.85;102133;1306;60449;-82
2021/12/30 10:51:40;;;;;;;11.00;8.70;;;;;;;6.19;100.00;98842.66;102003;1307;60764;-80
2021/12/30 10:54:13;;;;;;;11.80;9.40;;;;;;;6.14;100.00;98838.66;101754;1306;75575;-82
2021/12/30 10:56:46;;;;;;;11.40;9.10;;;;;;;6.11;100.00;98833.34;101911;1306;69332;-81
2021/12/30 10:59:27;;;;;;;11.00;8.30;;;;;;;6.06;100.00;98836.61;101830;1307;73250;-84
2021/12/30 11:02:12;;;;;;;9.60;8.20;;;;;;;6.03;100.00;98839.05;102148;1307;60484;-81
2021/12/30 11:04:42;;;;;;;11.60;9.70;;;;;;;6.03;100.00;98845.88;101870;1304;62060;-81